createdAt,value
2018-06-23T00:00:54.170Z,99.90
2018-06-23T00:03:22.739Z,99.90
2018-06-23T00:05:51.384Z,99.90
2018-06-23T00:08:19.918Z,99.90
2018-06-23T00:10:48.488Z,99.90
2018-06-23T00:13:17.131Z,99.90
2018-06-23T00:28:45.120Z,99.90
2018-06-23T00:31:13.788Z,99.90
2018-06-23T00:33:42.347Z,99.90
2018-06-23T00:36:10.920Z,99.90
2018-06-23T00:38:39.443Z,99.90
2018-06-23T00:41:08.163Z,99.90
2018-06-23T00:43:36.809Z,99.90
2018-06-23T00:46:05.463Z,99.90
2018-06-23T00:48:34.051Z,99.90
2018-06-23T00:51:02.722Z,99.90
2018-06-23T00:53:31.416Z,99.90
2018-06-23T00:56:00.723Z,99.90
2018-06-23T00:58:34.445Z,99.90
2018-06-23T01:01:03.381Z,99.90
2018-06-23T01:03:32.195Z,99.90
2018-06-23T01:06:01.071Z,99.90
2018-06-23T01:08:29.775Z,99.90
2018-06-23T01:10:58.393Z,99.90
2018-06-23T01:13:27.312Z,99.90
2018-06-23T01:15:56.285Z,99.90
2018-06-23T01:18:24.903Z,99.90
2018-06-23T01:20:53.765Z,99.90
2018-06-23T01:23:22.546Z,99.90
2018-06-23T01:25:51.456Z,99.90
2018-06-23T01:28:19.990Z,99.90
2018-06-23T01:30:48.727Z,99.90
2018-06-23T01:35:46.087Z,99.90
2018-06-23T01:38:14.744Z,99.90
2018-06-23T01:40:43.618Z,99.90
2018-06-23T01:43:12.450Z,99.90
2018-06-23T01:45:41.504Z,99.90
2018-06-23T01:48:10.170Z,99.90
2018-06-23T01:50:38.863Z,99.90
2018-06-23T01:53:07.571Z,99.90
2018-06-23T01:55:36.374Z,99.90
2018-06-23T01:58:04.970Z,99.90
2018-06-23T02:00:33.735Z,99.90
2018-06-23T02:03:02.439Z,99.90
2018-06-23T02:05:30.991Z,99.90
2018-06-23T02:07:59.707Z,99.90
2018-06-23T02:10:28.824Z,99.90
2018-06-23T02:12:57.480Z,99.90
2018-06-23T02:15:38.211Z,99.90
2018-06-23T02:18:12.232Z,99.90
2018-06-23T02:20:46.019Z,99.90
2018-06-23T02:23:20.137Z,99.90
2018-06-23T02:25:54.345Z,99.90
2018-06-23T02:28:28.287Z,99.90
2018-06-23T02:31:02.191Z,99.90
2018-06-23T02:33:36.019Z,99.90
2018-06-23T02:36:04.895Z,99.90
2018-06-23T02:38:33.703Z,99.90
2018-06-23T02:41:02.487Z,99.90
2018-06-23T02:43:31.217Z,99.90
2018-06-23T02:45:59.955Z,99.90
2018-06-23T02:48:28.627Z,99.90
2018-06-23T02:50:57.379Z,99.90
2018-06-23T02:53:26.105Z,99.90
2018-06-23T02:55:54.825Z,99.90
2018-06-23T02:58:23.443Z,99.90
2018-06-23T03:00:52.267Z,99.90
2018-06-23T03:03:21.123Z,99.90
2018-06-23T03:05:49.692Z,99.90
2018-06-23T03:08:18.320Z,99.90
2018-06-23T03:10:46.971Z,99.90
2018-06-23T03:13:15.562Z,99.90
2018-06-23T03:15:44.289Z,99.90
2018-06-23T03:18:13.080Z,99.90
2018-06-23T03:20:41.891Z,99.90
2018-06-23T03:23:10.640Z,99.90
2018-06-23T03:25:39.291Z,99.90
2018-06-23T03:28:07.933Z,99.90
2018-06-23T03:30:36.603Z,99.90
2018-06-23T03:33:05.522Z,99.90
2018-06-23T03:35:34.289Z,99.90
2018-06-23T03:38:02.897Z,99.90
2018-06-23T03:40:31.906Z,99.90
2018-06-23T03:43:00.795Z,99.90
2018-06-23T03:45:29.788Z,99.90
2018-06-23T03:47:58.688Z,99.90
2018-06-23T03:50:27.344Z,99.90
2018-06-23T03:52:56.088Z,99.90
2018-06-23T03:55:24.767Z,99.90
2018-06-23T03:57:53.493Z,99.90
2018-06-23T04:00:22.339Z,99.90
2018-06-23T04:02:51.256Z,99.90
2018-06-23T04:05:20.351Z,99.90
2018-06-23T04:07:49.242Z,99.90
2018-06-23T04:10:17.899Z,99.90
2018-06-23T04:12:46.886Z,99.90
2018-06-23T04:15:15.419Z,99.90
2018-06-23T04:17:43.979Z,99.90
2018-06-23T04:20:12.775Z,99.90
2018-06-23T04:22:41.520Z,99.90
2018-06-23T04:25:10.315Z,99.90
2018-06-23T04:27:39.211Z,99.90
2018-06-23T04:30:08.179Z,99.90
2018-06-23T04:32:36.824Z,99.90
2018-06-23T04:35:05.647Z,99.90
2018-06-23T04:37:34.397Z,99.90
2018-06-23T04:40:03.122Z,99.90
2018-06-23T04:42:31.835Z,99.90
2018-06-23T04:45:00.404Z,99.90
2018-06-23T04:47:29.131Z,99.90
2018-06-23T04:49:57.887Z,99.90
2018-06-23T04:52:26.667Z,99.90
2018-06-23T04:54:55.346Z,99.90
2018-06-23T04:57:24.075Z,99.90
2018-06-23T04:59:52.760Z,99.90
2018-06-23T05:02:21.391Z,99.90
2018-06-23T05:04:49.918Z,99.90
2018-06-23T05:07:18.842Z,99.90
2018-06-23T05:09:47.474Z,99.90
2018-06-23T05:12:16.044Z,99.90
2018-06-23T05:14:44.770Z,99.90
2018-06-23T05:17:13.355Z,99.90
2018-06-23T05:19:42.248Z,99.90
2018-06-23T05:22:11.137Z,99.90
2018-06-23T05:24:39.766Z,99.90
2018-06-23T05:27:08.583Z,99.90
2018-06-23T05:29:37.383Z,99.90
2018-06-23T05:32:06.282Z,99.90
2018-06-23T05:34:34.863Z,99.90
2018-06-23T05:37:03.550Z,99.90
2018-06-23T05:39:32.207Z,99.90
2018-06-23T05:42:00.862Z,99.90
2018-06-23T05:44:29.611Z,99.90
2018-06-23T05:46:58.273Z,99.90
2018-06-23T05:49:27.003Z,99.90
2018-06-23T05:51:55.681Z,99.90
2018-06-23T05:54:24.652Z,99.90
2018-06-23T05:56:53.472Z,99.90
2018-06-23T05:59:22.324Z,99.90
2018-06-23T06:01:51.311Z,99.90
2018-06-23T06:04:19.815Z,99.90
2018-06-23T06:06:48.631Z,99.90
2018-06-23T06:09:17.266Z,99.90
2018-06-23T06:11:45.985Z,99.90
2018-06-23T06:14:14.579Z,99.90
2018-06-23T06:17:23.768Z,99.90
2018-06-23T06:19:56.418Z,99.90
2018-06-23T06:22:26.117Z,99.90
2018-06-23T06:24:54.803Z,99.90
2018-06-23T06:27:23.376Z,99.90
2018-06-23T06:29:52.973Z,99.90
2018-06-23T06:32:21.910Z,99.90
2018-06-23T06:34:50.491Z,99.90
2018-06-23T06:37:19.182Z,99.90
2018-06-23T06:39:47.922Z,99.90
2018-06-23T06:42:16.735Z,99.90
2018-06-23T06:44:45.292Z,99.90
2018-06-23T06:47:16.819Z,99.90
2018-06-23T06:49:45.652Z,99.90
2018-06-23T06:52:14.380Z,99.90
2018-06-23T06:54:43.734Z,99.90
2018-06-23T06:57:12.405Z,99.90
2018-06-23T06:59:41.063Z,99.90
2018-06-23T07:02:09.850Z,99.90
2018-06-23T07:04:38.406Z,99.90
2018-06-23T07:07:07.176Z,99.90
2018-06-23T07:09:36.203Z,99.90
2018-06-23T07:12:04.838Z,99.90
2018-06-23T07:14:33.628Z,99.90
2018-06-23T07:17:02.254Z,99.90
2018-06-23T07:19:31.043Z,99.90
2018-06-23T07:21:59.590Z,99.90
2018-06-23T07:24:28.388Z,99.90
2018-06-23T07:26:57.632Z,99.90
2018-06-23T07:29:26.340Z,99.90
2018-06-23T07:31:55.015Z,99.90
2018-06-23T07:34:23.794Z,99.90
2018-06-23T07:36:52.707Z,99.90
2018-06-23T07:39:21.513Z,99.90
2018-06-23T07:41:50.187Z,99.90
2018-06-23T07:44:19.030Z,99.90
2018-06-23T07:46:47.713Z,99.90
2018-06-23T07:49:16.487Z,99.90
2018-06-23T07:51:45.075Z,99.90
2018-06-23T07:54:13.755Z,99.90
2018-06-23T07:56:42.483Z,99.90
2018-06-23T07:59:11.118Z,99.90
2018-06-23T08:01:39.760Z,99.90
2018-06-23T08:04:08.488Z,99.90
2018-06-23T08:06:37.543Z,99.90
2018-06-23T08:11:35.761Z,99.90
2018-06-23T08:14:04.705Z,99.90
2018-06-23T08:16:33.314Z,99.90
2018-06-23T08:19:01.907Z,99.90
2018-06-23T08:21:30.509Z,99.90
2018-06-23T08:23:59.366Z,99.90
2018-06-23T08:26:28.095Z,99.90
2018-06-23T08:28:56.584Z,99.90
2018-06-23T08:31:25.095Z,99.90
2018-06-23T08:33:53.782Z,99.90
2018-06-23T08:36:22.416Z,99.90
2018-06-23T08:38:51.194Z,99.90
2018-06-23T08:41:19.818Z,99.90
2018-06-23T08:43:48.564Z,99.90
2018-06-23T08:46:17.174Z,99.90
2018-06-23T08:48:46.016Z,99.90
2018-06-23T08:51:14.765Z,99.90
2018-06-23T09:14:28.771Z,99.90
2018-06-23T09:16:57.965Z,99.90
2018-06-23T09:19:26.938Z,99.90
2018-06-23T09:21:55.668Z,99.90
2018-06-23T09:24:24.535Z,99.90
2018-06-23T09:26:53.211Z,96.10
2018-06-23T09:29:22.052Z,97.80
2018-06-23T09:31:50.902Z,97.90
2018-06-23T09:34:19.536Z,99.90
2018-06-23T09:36:48.267Z,97.20
2018-06-23T09:39:16.919Z,96.90
2018-06-23T09:41:45.956Z,94.50
2018-06-23T09:44:14.628Z,96.50
2018-06-23T09:46:43.341Z,93.50
2018-06-23T09:49:11.927Z,88.50
2018-06-23T09:51:40.681Z,90.40
2018-06-23T09:54:09.484Z,92.10
2018-06-23T09:56:38.102Z,90.30
2018-06-23T09:59:06.925Z,84.00
2018-06-23T10:01:36.231Z,88.10
2018-06-23T10:04:05.239Z,88.00
2018-06-23T10:06:34.444Z,88.20
2018-06-23T10:09:03.122Z,89.40
2018-06-23T10:11:31.726Z,87.90
2018-06-23T10:14:00.231Z,88.40
2018-06-23T10:16:28.743Z,87.20
2018-06-23T10:18:57.295Z,90.10
2018-06-23T10:21:25.972Z,92.80
2018-06-23T10:23:54.707Z,94.10
2018-06-23T10:26:23.563Z,94.60
2018-06-23T10:28:52.082Z,92.50
2018-06-23T10:31:20.825Z,90.60
2018-06-23T10:33:49.561Z,90.30
2018-06-23T10:36:18.290Z,89.90
2018-06-23T10:38:46.918Z,85.70
2018-06-23T10:41:15.473Z,91.30
2018-06-23T10:43:44.023Z,90.40
2018-06-23T10:46:12.770Z,88.70
2018-06-23T10:48:41.644Z,85.00
2018-06-23T10:51:10.319Z,84.40
2018-06-23T10:53:39.212Z,81.90
2018-06-23T10:56:07.828Z,82.50
2018-06-23T10:58:36.802Z,89.10
2018-06-23T11:01:05.752Z,88.60
2018-06-23T11:03:34.315Z,91.20
2018-06-23T11:06:03.020Z,90.80
2018-06-23T11:08:31.957Z,93.80
2018-06-23T11:11:00.655Z,92.10
2018-06-23T11:13:29.356Z,91.40
2018-06-23T11:15:58.075Z,92.40
2018-06-23T11:18:26.792Z,96.00
2018-06-23T11:20:55.590Z,92.50
2018-06-23T11:23:24.256Z,90.00
2018-06-23T11:25:52.923Z,91.10
2018-06-23T11:28:21.895Z,93.30
2018-06-23T11:30:50.588Z,91.90
2018-06-23T11:33:19.341Z,91.20
2018-06-23T11:35:48.063Z,86.30
2018-06-23T11:38:16.670Z,90.10
2018-06-23T11:40:45.301Z,88.20
2018-06-23T11:43:13.947Z,90.60
2018-06-23T11:45:42.806Z,89.50
2018-06-23T11:48:11.483Z,91.60
2018-06-23T11:50:39.967Z,90.10
2018-06-23T11:53:08.837Z,92.70
2018-06-23T11:55:37.603Z,92.20
2018-06-23T11:58:06.539Z,95.70
2018-06-23T12:00:35.384Z,96.10
2018-06-23T12:03:04.181Z,98.60
2018-06-23T12:05:33.083Z,99.00
2018-06-23T12:08:01.892Z,96.80
2018-06-23T12:10:30.399Z,96.80
2018-06-23T12:12:59.045Z,94.00
2018-06-23T12:15:28.010Z,93.20
2018-06-23T12:17:56.691Z,94.50
2018-06-23T12:20:25.331Z,95.90
2018-06-23T12:22:53.957Z,96.00
2018-06-23T12:25:22.734Z,98.90
2018-06-23T12:27:51.738Z,99.90
2018-06-23T12:30:20.432Z,99.90
2018-06-23T12:32:49.099Z,99.90
2018-06-23T12:35:17.664Z,99.90
2018-06-23T12:37:46.302Z,99.90
2018-06-23T12:40:14.968Z,99.90
2018-06-23T12:42:43.766Z,99.90
2018-06-23T12:47:40.870Z,99.90
2018-06-23T12:50:09.731Z,99.10
2018-06-23T12:52:38.600Z,99.80
2018-06-23T12:55:07.594Z,99.60
2018-06-23T12:57:36.594Z,99.90
2018-06-23T13:00:06.417Z,97.50
2018-06-23T13:02:34.933Z,99.20
2018-06-23T13:05:03.679Z,99.20
2018-06-23T13:07:32.312Z,97.60
2018-06-23T13:10:00.952Z,97.80
2018-06-23T13:12:29.494Z,99.30
2018-06-23T13:14:58.081Z,99.90
2018-06-23T13:17:26.684Z,99.90
2018-06-23T13:19:55.223Z,99.90
2018-06-23T13:22:23.751Z,98.90
2018-06-23T13:24:52.392Z,99.90
2018-06-23T13:27:21.160Z,99.90
2018-06-23T13:29:49.795Z,99.90
2018-06-23T13:32:18.648Z,99.90
2018-06-23T13:37:15.795Z,99.90
2018-06-23T13:39:44.621Z,99.90
2018-06-23T13:42:13.600Z,99.90
2018-06-23T13:44:42.396Z,99.90
2018-06-23T13:47:11.203Z,99.90
2018-06-23T13:49:40.241Z,99.90
2018-06-23T13:52:08.887Z,97.60
2018-06-23T13:54:37.504Z,97.90
2018-06-23T13:57:06.169Z,99.90
2018-06-23T13:59:34.788Z,99.90
2018-06-23T14:02:03.519Z,99.90
2018-06-23T14:04:32.155Z,99.90
2018-06-23T14:07:01.085Z,99.90
2018-06-23T14:09:29.715Z,99.90
2018-06-23T14:11:58.511Z,99.90
2018-06-23T14:14:27.088Z,99.90
2018-06-23T14:16:55.698Z,99.90
2018-06-23T14:19:24.261Z,99.90
2018-06-23T14:21:52.994Z,99.90
2018-06-23T14:24:21.604Z,99.90
2018-06-23T14:26:50.333Z,99.90
2018-06-23T14:29:19.088Z,99.90
2018-06-23T14:31:47.945Z,99.90
2018-06-23T14:34:16.386Z,99.90
2018-06-23T14:36:45.344Z,99.90
2018-06-23T14:39:13.968Z,99.90
2018-06-23T14:41:42.621Z,99.90
2018-06-23T14:44:11.399Z,98.80
2018-06-23T14:46:40.152Z,98.20
2018-06-23T14:49:08.964Z,98.80
2018-06-23T14:51:37.622Z,99.90
2018-06-23T14:54:06.583Z,99.90
2018-06-23T14:56:35.295Z,99.90
2018-06-23T14:59:03.998Z,99.90
2018-06-23T15:01:32.879Z,99.90
2018-06-23T15:04:01.499Z,97.20
2018-06-23T15:06:30.163Z,99.90
2018-06-23T15:09:10.069Z,99.90
2018-06-23T15:11:49.788Z,99.90
2018-06-23T15:14:18.695Z,99.90
2018-06-23T15:16:47.411Z,99.90
2018-06-23T15:19:16.314Z,99.90
2018-06-23T15:21:45.127Z,99.90
2018-06-23T15:24:13.777Z,99.90
2018-06-23T15:26:42.437Z,99.90
2018-06-23T15:29:11.133Z,99.90
2018-06-23T15:31:40.066Z,99.90
2018-06-23T15:34:08.709Z,99.90
2018-06-23T15:36:37.335Z,99.90
2018-06-23T15:39:08.389Z,99.90
2018-06-23T15:41:36.946Z,99.90
2018-06-23T15:44:05.589Z,99.90
2018-06-23T15:46:34.318Z,99.90
2018-06-23T15:49:02.948Z,99.90
2018-06-23T15:51:31.488Z,99.90
2018-06-23T15:54:00.046Z,99.90
2018-06-23T15:56:28.647Z,99.90
2018-06-23T15:58:57.180Z,99.90
2018-06-23T16:01:25.833Z,99.90
2018-06-23T16:03:54.607Z,99.90
2018-06-23T16:06:23.106Z,99.90
2018-06-23T16:08:51.920Z,99.90
2018-06-23T16:11:20.431Z,99.90
2018-06-23T16:13:49.052Z,99.90
2018-06-23T16:16:17.756Z,99.90
2018-06-23T16:18:46.409Z,99.90
2018-06-23T16:21:15.121Z,99.90
2018-06-23T16:23:43.883Z,99.90
2018-06-23T16:26:12.506Z,99.90
2018-06-23T16:28:41.141Z,99.90
2018-06-23T16:31:09.845Z,99.90
2018-06-23T16:33:38.508Z,99.90
2018-06-23T16:36:07.199Z,99.90
2018-06-23T16:38:35.866Z,99.00
2018-06-23T16:41:04.574Z,99.00
2018-06-23T16:43:33.384Z,99.10
2018-06-23T16:46:01.926Z,98.60
2018-06-23T16:48:30.483Z,98.80
2018-06-23T16:50:59.104Z,99.00
2018-06-23T16:53:27.778Z,98.20
2018-06-23T16:55:56.492Z,99.50
2018-06-23T16:58:25.366Z,99.90
2018-06-23T17:00:53.993Z,99.90
2018-06-23T17:03:22.755Z,97.20
2018-06-23T17:05:51.336Z,97.10
2018-06-23T17:08:19.995Z,96.80
2018-06-23T17:10:48.669Z,97.10
2018-06-23T17:13:17.393Z,96.90
2018-06-23T17:15:45.940Z,97.60
2018-06-23T17:18:14.591Z,97.90
2018-06-23T17:20:43.262Z,99.10
2018-06-23T17:23:11.883Z,99.40
2018-06-23T17:25:40.707Z,98.60
2018-06-23T17:28:09.576Z,99.10
2018-06-23T17:30:38.282Z,98.70
2018-06-23T17:33:06.991Z,98.90
2018-06-23T17:35:35.694Z,99.70
2018-06-23T17:38:04.599Z,99.90
2018-06-23T17:40:33.308Z,99.90
2018-06-23T17:43:02.123Z,99.70
2018-06-23T17:45:30.638Z,99.90
2018-06-23T17:47:59.378Z,99.90
2018-06-23T17:50:27.995Z,99.90
2018-06-23T17:52:56.959Z,99.90
2018-06-23T17:55:25.651Z,99.90
2018-06-23T17:57:54.813Z,99.90
2018-06-23T18:00:23.250Z,99.90
2018-06-23T18:02:51.862Z,99.90
2018-06-23T18:05:20.723Z,99.90
2018-06-23T18:07:49.447Z,99.90
2018-06-23T18:10:17.975Z,99.90
2018-06-23T18:12:46.602Z,99.90
2018-06-23T18:15:15.411Z,99.90
2018-06-23T18:17:44.149Z,99.90
2018-06-23T18:20:12.760Z,99.90
2018-06-23T18:22:41.552Z,99.90
2018-06-23T18:25:10.427Z,99.90
2018-06-23T18:27:39.295Z,99.90
2018-06-23T18:30:07.951Z,99.90
2018-06-23T18:32:36.901Z,99.90
2018-06-23T18:35:05.682Z,99.90
2018-06-23T18:37:34.500Z,99.90
2018-06-23T18:40:03.232Z,99.90
2018-06-23T18:42:31.992Z,99.90
2018-06-23T18:45:00.559Z,99.90
2018-06-23T18:47:29.259Z,99.90
2018-06-23T18:49:57.945Z,99.90
2018-06-23T18:52:26.710Z,99.90
2018-06-23T18:54:55.403Z,99.90
2018-06-23T18:57:24.218Z,99.90
2018-06-23T18:59:52.850Z,99.90
2018-06-23T19:02:21.740Z,99.90
2018-06-23T19:04:50.302Z,99.90
2018-06-23T19:07:19.100Z,99.90
2018-06-23T19:09:47.946Z,99.90
2018-06-23T19:12:16.719Z,99.90
2018-06-23T19:14:45.361Z,99.90
2018-06-23T19:17:14.199Z,99.90
2018-06-23T19:19:42.962Z,99.90
2018-06-23T19:22:11.551Z,99.90
2018-06-23T19:24:40.229Z,99.90
2018-06-23T19:27:08.988Z,99.90
2018-06-23T19:29:37.763Z,99.90
2018-06-23T19:32:06.408Z,99.90
2018-06-23T19:34:35.257Z,99.90
2018-06-23T19:37:03.957Z,99.90
2018-06-23T19:39:32.563Z,99.90
2018-06-23T19:42:01.267Z,99.90
2018-06-23T19:44:30.036Z,99.90
2018-06-23T19:46:58.631Z,99.90
2018-06-23T19:49:27.280Z,99.90
2018-06-23T19:51:55.978Z,99.90
2018-06-23T19:54:25.063Z,99.90
2018-06-23T19:56:53.642Z,99.90
2018-06-23T19:59:22.183Z,99.90
2018-06-23T20:01:50.825Z,99.90
2018-06-23T20:04:19.716Z,99.90
2018-06-23T20:06:48.411Z,99.90
2018-06-23T20:09:17.175Z,99.90
2018-06-23T20:11:45.951Z,99.90
2018-06-23T20:14:14.666Z,99.90
2018-06-23T20:16:43.319Z,99.90
2018-06-23T20:19:11.916Z,99.90
2018-06-23T20:21:40.629Z,99.90
2018-06-23T20:24:09.332Z,99.90
2018-06-23T20:26:37.977Z,99.90
2018-06-23T20:29:06.828Z,99.90
2018-06-23T20:31:35.430Z,99.90
2018-06-23T20:34:04.932Z,99.90
2018-06-23T20:36:33.839Z,99.90
2018-06-23T20:39:02.678Z,99.90
2018-06-23T20:43:59.524Z,99.90
2018-06-23T20:46:28.226Z,99.90
2018-06-23T20:48:57.031Z,99.90
2018-06-23T20:51:25.616Z,99.90
2018-06-23T20:53:55.188Z,99.90
2018-06-23T20:56:23.898Z,99.90
2018-06-23T20:58:52.576Z,99.90
2018-06-23T21:02:33.206Z,99.90
2018-06-23T21:05:02.229Z,99.90
2018-06-23T21:07:31.719Z,99.90
2018-06-23T21:10:01.069Z,99.90
2018-06-23T21:12:30.500Z,99.90
2018-06-23T21:15:00.267Z,99.90
2018-06-23T21:17:30.080Z,99.90
2018-06-23T21:19:59.484Z,99.90
2018-06-23T21:22:28.886Z,99.90
2018-06-23T21:24:58.440Z,99.90
2018-06-23T21:29:56.846Z,99.90
2018-06-23T21:32:26.133Z,99.90
2018-06-23T21:34:55.712Z,99.90
2018-06-23T21:37:25.004Z,99.90
2018-06-23T21:39:54.417Z,99.90
2018-06-23T21:42:24.097Z,99.90
2018-06-23T21:44:53.809Z,99.90
2018-06-23T21:47:23.958Z,99.90
2018-06-23T21:49:53.291Z,99.90
2018-06-23T21:52:22.719Z,99.90
2018-06-23T21:54:52.041Z,99.90
2018-06-23T21:57:21.728Z,99.90
2018-06-23T21:59:51.015Z,99.90
2018-06-23T22:02:20.627Z,99.90
2018-06-23T22:04:50.280Z,99.90
2018-06-23T22:07:19.750Z,99.90
2018-06-23T22:09:49.360Z,99.90
2018-06-23T22:12:19.039Z,99.90
2018-06-23T22:14:48.781Z,99.90
2018-06-23T22:17:18.182Z,99.90
2018-06-23T22:19:47.595Z,99.90
2018-06-23T22:22:16.916Z,99.90
2018-06-23T22:24:46.313Z,99.90
2018-06-23T22:27:15.744Z,99.90
2018-06-23T22:29:45.618Z,99.90
2018-06-23T22:32:15.318Z,99.90
2018-06-23T22:34:44.880Z,99.90
2018-06-23T22:37:14.391Z,99.90
2018-06-23T22:39:43.752Z,99.90
2018-06-23T22:42:14.165Z,99.90
2018-06-23T22:44:44.715Z,99.90
2018-06-23T22:47:15.162Z,99.90
2018-06-23T22:49:44.567Z,99.90
2018-06-23T22:52:13.939Z,99.90
2018-06-23T22:54:43.280Z,99.90
2018-06-23T22:57:12.631Z,99.90
2018-06-23T22:59:41.982Z,99.90
2018-06-23T23:02:11.439Z,99.90
2018-06-23T23:04:40.814Z,99.90
2018-06-23T23:07:10.232Z,99.90
2018-06-23T23:09:41.714Z,99.90
2018-06-23T23:12:11.302Z,99.90
2018-06-23T23:14:40.588Z,99.90
2018-06-23T23:17:09.962Z,99.90
2018-06-23T23:19:39.517Z,99.90
2018-06-23T23:22:09.322Z,99.90
2018-06-23T23:24:38.726Z,99.90
2018-06-23T23:27:08.472Z,99.90
2018-06-23T23:29:39.070Z,99.90
2018-06-23T23:32:08.382Z,99.90
2018-06-23T23:34:37.814Z,99.90
2018-06-23T23:37:08.852Z,99.90
2018-06-23T23:39:40.294Z,99.90
2018-06-23T23:42:10.061Z,99.90
2018-06-23T23:44:39.368Z,99.90
2018-06-23T23:47:08.736Z,99.90
2018-06-23T23:49:38.024Z,99.90
2018-06-23T23:52:08.414Z,99.90
2018-06-23T23:54:37.973Z,99.90
2018-06-23T23:57:07.481Z,99.90
2018-06-23T23:59:37.145Z,99.90
